createdAt,value
2018-09-23T00:02:19.997Z,4.00
2018-09-23T00:04:48.917Z,4.07
2018-09-23T00:07:18.080Z,4.10
2018-09-23T00:09:47.485Z,4.00
2018-09-23T00:12:16.715Z,3.93
2018-09-23T00:14:46.068Z,4.17
2018-09-23T00:17:15.285Z,4.10
2018-09-23T00:19:44.311Z,3.87
2018-09-23T00:22:13.292Z,4.40
2018-09-23T00:24:42.448Z,3.60
2018-09-23T00:27:11.846Z,4.33
2018-09-23T00:29:46.050Z,4.07
2018-09-23T00:32:15.374Z,3.93
2018-09-23T00:34:44.372Z,4.13
2018-09-23T00:37:13.651Z,4.07
2018-09-23T00:39:42.739Z,4.20
2018-09-23T00:42:11.910Z,4.07
2018-09-23T00:44:40.740Z,3.67
2018-09-23T00:47:09.979Z,4.00
2018-09-23T00:49:39.132Z,3.90
2018-09-23T00:52:08.475Z,3.83
2018-09-23T00:54:37.715Z,4.23
2018-09-23T00:57:06.887Z,4.13
2018-09-23T00:59:36.047Z,4.37
2018-09-23T01:02:05.284Z,3.87
2018-09-23T01:04:34.251Z,4.07
2018-09-23T01:07:03.318Z,3.80
2018-09-23T01:09:32.707Z,3.80
2018-09-23T01:12:01.792Z,3.70
2018-09-23T01:14:31.148Z,3.93
2018-09-23T01:17:00.487Z,3.97
2018-09-23T01:19:29.905Z,4.13
2018-09-23T01:21:59.196Z,3.90
2018-09-23T01:24:28.064Z,4.00
2018-09-23T01:26:57.270Z,3.70
2018-09-23T01:29:26.534Z,3.73
2018-09-23T01:31:55.720Z,3.93
2018-09-23T01:34:25.144Z,3.70
2018-09-23T01:36:54.587Z,3.70
2018-09-23T01:39:23.555Z,3.97
2018-09-23T01:41:52.828Z,3.97
2018-09-23T01:44:21.973Z,3.90
2018-09-23T01:46:51.232Z,3.70
2018-09-23T01:49:20.521Z,3.40
2018-09-23T01:51:49.479Z,3.77
2018-09-23T01:54:18.604Z,3.93
2018-09-23T01:56:47.895Z,3.60
2018-09-23T01:59:17.042Z,3.47
2018-09-23T02:01:45.978Z,3.97
2018-09-23T02:04:15.337Z,4.00
2018-09-23T02:06:44.579Z,4.17
2018-09-23T02:09:13.923Z,3.70
2018-09-23T02:11:43.449Z,3.97
2018-09-23T02:14:12.971Z,3.57
2018-09-23T02:16:41.895Z,4.37
2018-09-23T02:19:11.222Z,3.80
2018-09-23T02:21:40.436Z,3.93
2018-09-23T02:24:09.671Z,4.10
2018-09-23T02:26:38.931Z,3.97
2018-09-23T02:29:08.292Z,3.90
2018-09-23T02:31:37.608Z,4.13
2018-09-23T02:34:06.949Z,4.17
2018-09-23T02:36:35.975Z,4.20
2018-09-23T02:39:06.460Z,4.53
2018-09-23T02:41:35.545Z,4.90
2018-09-23T02:44:04.937Z,4.57
2018-09-23T02:46:34.214Z,4.77
2018-09-23T02:49:03.200Z,4.60
2018-09-23T02:51:32.496Z,4.33
2018-09-23T02:54:01.691Z,4.63
2018-09-23T02:56:30.984Z,4.20
2018-09-23T02:58:59.894Z,4.20
2018-09-23T03:01:28.881Z,4.53
2018-09-23T03:03:58.076Z,4.30
2018-09-23T03:06:27.347Z,4.30
2018-09-23T03:08:56.625Z,4.10
2018-09-23T03:11:25.842Z,4.60
2018-09-23T03:13:55.036Z,4.50
2018-09-23T03:16:24.554Z,3.90
2018-09-23T03:18:53.417Z,4.27
2018-09-23T03:21:22.787Z,4.30
2018-09-23T03:23:51.967Z,3.83
2018-09-23T03:26:21.131Z,4.20
2018-09-23T03:28:50.489Z,3.50
2018-09-23T03:31:19.727Z,4.10
2018-09-23T03:33:48.940Z,4.27
2018-09-23T03:36:18.131Z,4.07
2018-09-23T03:38:47.537Z,4.07
2018-09-23T03:41:16.952Z,3.70
2018-09-23T03:43:46.092Z,4.00
2018-09-23T03:46:15.494Z,4.10
2018-09-23T03:48:44.726Z,3.90
2018-09-23T03:51:13.923Z,4.03
2018-09-23T03:53:42.860Z,4.17
2018-09-23T03:56:12.171Z,3.87
2018-09-23T03:58:41.412Z,4.07
2018-09-23T04:01:10.724Z,4.63
2018-09-23T04:03:39.964Z,4.63
2018-09-23T04:06:08.831Z,4.30
2018-09-23T04:08:37.686Z,4.47
2018-09-23T04:11:07.037Z,4.10
2018-09-23T04:13:36.014Z,3.77
2018-09-23T04:16:05.268Z,4.23
2018-09-23T04:18:34.744Z,4.50
2018-09-23T04:21:04.081Z,4.47
2018-09-23T04:23:33.240Z,4.80
2018-09-23T04:26:02.407Z,4.30
2018-09-23T04:28:31.665Z,4.13
2018-09-23T04:31:00.853Z,4.67
2018-09-23T04:33:30.164Z,4.87
2018-09-23T04:35:59.132Z,4.50
2018-09-23T04:38:28.451Z,4.67
2018-09-23T04:40:57.351Z,4.67
2018-09-23T04:43:26.193Z,4.80
2018-09-23T04:45:55.181Z,4.80
2018-09-23T04:48:24.007Z,4.90
2018-09-23T04:50:53.178Z,5.30
2018-09-23T04:53:22.256Z,5.13
2018-09-23T04:55:51.364Z,4.80
2018-09-23T04:58:20.842Z,4.70
2018-09-23T05:00:50.036Z,5.37
2018-09-23T05:03:19.400Z,4.60
2018-09-23T05:05:48.754Z,4.83
2018-09-23T05:08:18.203Z,4.80
2018-09-23T05:10:47.319Z,4.50
2018-09-23T05:13:16.700Z,4.70
2018-09-23T05:15:46.030Z,4.67
2018-09-23T05:18:15.154Z,4.70
2018-09-23T05:20:44.371Z,4.40
2018-09-23T05:23:13.226Z,5.50
2018-09-23T05:25:42.376Z,5.33
2018-09-23T05:28:11.527Z,4.90
2018-09-23T05:30:40.811Z,5.30
2018-09-23T05:33:10.068Z,4.80
2018-09-23T05:35:39.472Z,4.80
2018-09-23T05:38:08.707Z,5.27
2018-09-23T05:40:37.615Z,5.03
2018-09-23T05:43:07.376Z,4.80
2018-09-23T05:45:36.434Z,4.83
2018-09-23T05:48:05.656Z,4.50
2018-09-23T05:50:34.959Z,5.10
2018-09-23T05:53:04.169Z,4.40
2018-09-23T05:55:33.155Z,4.60
2018-09-23T05:58:02.207Z,4.50
2018-09-23T06:00:35.246Z,4.87
2018-09-23T06:03:04.613Z,4.60
2018-09-23T06:05:34.031Z,5.60
2018-09-23T06:08:02.894Z,4.90
2018-09-23T06:10:32.164Z,4.80
2018-09-23T06:13:01.365Z,4.67
2018-09-23T06:15:30.479Z,4.63
2018-09-23T06:17:59.855Z,4.87
2018-09-23T06:20:29.199Z,4.70
2018-09-23T06:22:58.147Z,4.87
2018-09-23T06:25:27.120Z,5.43
2018-09-23T06:27:56.189Z,5.13
2018-09-23T06:30:25.556Z,5.07
2018-09-23T06:32:54.783Z,4.63
2018-09-23T06:35:24.076Z,4.87
2018-09-23T06:37:53.025Z,4.97
2018-09-23T06:40:22.011Z,4.70
2018-09-23T06:42:51.015Z,4.63
2018-09-23T06:45:20.295Z,4.70
2018-09-23T06:47:49.367Z,4.60
2018-09-23T06:50:18.592Z,4.63
2018-09-23T06:52:47.795Z,4.70
2018-09-23T06:55:17.075Z,4.80
2018-09-23T06:57:46.239Z,4.63
2018-09-23T07:00:15.243Z,4.03
2018-09-23T07:02:44.536Z,4.47
2018-09-23T07:05:13.579Z,4.93
2018-09-23T07:07:42.776Z,4.87
2018-09-23T07:10:12.089Z,5.03
2018-09-23T07:12:41.207Z,4.83
2018-09-23T07:15:10.415Z,4.20
2018-09-23T07:17:39.450Z,4.90
2018-09-23T07:20:08.598Z,5.07
2018-09-23T07:22:37.663Z,5.40
2018-09-23T07:25:06.888Z,5.90
2018-09-23T07:27:36.047Z,6.93
2018-09-23T07:30:05.507Z,7.00
2018-09-23T07:32:34.642Z,6.87
2018-09-23T07:35:03.571Z,6.87
2018-09-23T07:37:32.824Z,6.93
2018-09-23T07:40:02.287Z,8.70
2018-09-23T07:42:31.405Z,7.23
2018-09-23T07:45:00.579Z,8.43
2018-09-23T07:47:29.838Z,7.73
2018-09-23T07:49:58.791Z,7.43
2018-09-23T07:52:27.866Z,6.67
2018-09-23T07:54:56.995Z,7.40
2018-09-23T07:57:26.182Z,6.67
2018-09-23T07:59:55.439Z,7.03
2018-09-23T08:02:25.548Z,7.90
2018-09-23T08:04:54.900Z,7.30
2018-09-23T08:07:24.261Z,18.63
2018-09-23T08:09:53.288Z,10.40
2018-09-23T08:12:22.170Z,9.13
2018-09-23T08:14:51.883Z,9.40
2018-09-23T08:17:20.906Z,6.57
2018-09-23T08:19:49.971Z,6.90
2018-09-23T08:22:19.032Z,9.50
2018-09-23T08:24:48.159Z,7.40
2018-09-23T08:27:17.065Z,6.80
2018-09-23T08:29:46.045Z,5.67
2018-09-23T08:32:15.359Z,8.27
2018-09-23T08:34:44.530Z,9.53
2018-09-23T08:37:13.779Z,6.23
2018-09-23T08:39:43.116Z,6.23
2018-09-23T08:42:12.558Z,6.27
2018-09-23T08:44:41.798Z,6.50
2018-09-23T08:47:10.716Z,6.13
2018-09-23T08:49:39.879Z,10.30
2018-09-23T08:52:09.268Z,8.27
2018-09-23T08:54:38.458Z,13.43
2018-09-23T08:57:07.475Z,8.80
2018-09-23T08:59:36.808Z,6.87
2018-09-23T09:02:06.080Z,15.07
2018-09-23T09:04:35.320Z,10.23
2018-09-23T09:07:04.720Z,7.53
2018-09-23T09:09:33.915Z,12.93
2018-09-23T09:12:03.212Z,6.13
2018-09-23T09:14:32.412Z,6.63
2018-09-23T09:17:01.772Z,10.90
2018-09-23T09:19:31.211Z,9.60
2018-09-23T09:22:00.159Z,5.73
2018-09-23T09:24:29.429Z,5.77
2018-09-23T09:26:58.398Z,4.63
2018-09-23T09:29:27.650Z,4.90
2018-09-23T09:31:56.586Z,4.90
2018-09-23T09:34:25.977Z,4.73
2018-09-23T09:36:55.279Z,4.80
2018-09-23T09:39:24.492Z,4.97
2018-09-23T09:41:53.707Z,4.87
2018-09-23T09:44:22.783Z,4.60
2018-09-23T09:46:51.977Z,5.30
2018-09-23T09:49:21.382Z,5.43
2018-09-23T09:51:50.791Z,5.07
2018-09-23T09:54:20.173Z,4.50
2018-09-23T09:56:49.427Z,4.33
2018-09-23T09:59:18.783Z,4.43
2018-09-23T10:01:47.827Z,4.47
2018-09-23T10:04:16.835Z,4.57
2018-09-23T10:06:46.112Z,4.70
2018-09-23T10:09:15.299Z,5.07
2018-09-23T10:11:44.442Z,4.83
2018-09-23T10:14:13.603Z,4.70
2018-09-23T10:16:42.522Z,5.15
2018-09-23T10:19:11.687Z,4.92
2018-09-23T10:21:40.868Z,4.85
2018-09-23T10:24:10.141Z,4.35
2018-09-23T10:26:39.430Z,4.28
2018-09-23T10:29:08.672Z,4.42
2018-09-23T10:31:37.765Z,4.22
2018-09-23T10:34:07.027Z,4.33
2018-09-23T10:36:36.097Z,4.40
2018-09-23T10:39:07.404Z,3.98
2018-09-23T10:41:36.383Z,4.30
2018-09-23T10:44:05.846Z,4.25
2018-09-23T10:46:35.624Z,4.12
2018-09-23T10:49:04.989Z,4.00
2018-09-23T10:51:34.396Z,4.30
2018-09-23T10:54:03.615Z,4.30
2018-09-23T10:56:32.803Z,4.33
2018-09-23T10:59:02.013Z,4.67
2018-09-23T11:01:31.231Z,4.65
2018-09-23T11:04:00.526Z,4.40
2018-09-23T11:06:29.634Z,4.60
2018-09-23T11:08:58.781Z,4.25
2018-09-23T11:11:29.400Z,4.62
2018-09-23T11:13:58.455Z,4.67
2018-09-23T11:16:27.607Z,4.70
2018-09-23T11:18:56.955Z,4.87
2018-09-23T11:21:26.335Z,4.55
2018-09-23T11:23:55.411Z,5.10
2018-09-23T11:26:24.764Z,5.12
2018-09-23T11:28:54.008Z,5.35
2018-09-23T11:31:23.206Z,5.50
2018-09-23T11:33:52.547Z,4.83
2018-09-23T11:36:21.755Z,5.20
2018-09-23T11:38:50.668Z,5.78
2018-09-23T11:41:19.772Z,5.15
2018-09-23T11:43:49.026Z,4.95
2018-09-23T11:46:18.275Z,5.78
2018-09-23T11:48:47.622Z,5.40
2018-09-23T11:51:16.726Z,5.62
2018-09-23T11:53:46.091Z,6.12
2018-09-23T11:56:15.368Z,5.10
2018-09-23T11:58:44.628Z,6.00
2018-09-23T12:01:13.820Z,5.58
2018-09-23T12:03:42.684Z,5.45
2018-09-23T12:06:11.855Z,6.30
2018-09-23T12:08:41.144Z,6.00
2018-09-23T12:11:10.506Z,5.72
2018-09-23T12:13:39.904Z,5.60
2018-09-23T12:16:09.900Z,5.47
2018-09-23T12:18:38.712Z,6.58
2018-09-23T12:21:08.097Z,6.08
2018-09-23T12:23:37.152Z,5.47
2018-09-23T12:26:06.691Z,6.35
2018-09-23T12:28:36.082Z,5.85
2018-09-23T12:31:05.348Z,6.03
2018-09-23T12:33:34.643Z,6.50
2018-09-23T12:36:04.349Z,5.70
2018-09-23T12:38:34.842Z,5.62
2018-09-23T12:41:04.540Z,6.25
2018-09-23T12:43:33.652Z,6.25
2018-09-23T12:46:03.025Z,6.22
2018-09-23T12:48:32.283Z,6.45
2018-09-23T12:51:02.200Z,7.45
2018-09-23T12:53:31.614Z,6.47
2018-09-23T12:56:01.356Z,6.55
2018-09-23T12:58:30.608Z,6.50
2018-09-23T13:00:59.686Z,6.15
2018-09-23T13:03:28.965Z,5.80
2018-09-23T13:05:58.347Z,6.17
2018-09-23T13:08:27.680Z,6.08
2018-09-23T13:10:57.056Z,6.22
2018-09-23T13:13:27.254Z,6.40
2018-09-23T13:15:56.375Z,6.03
2018-09-23T13:18:25.929Z,5.92
2018-09-23T13:20:55.119Z,6.08
2018-09-23T13:23:24.478Z,6.30
2018-09-23T13:25:53.523Z,6.30
2018-09-23T13:28:22.539Z,5.80
2018-09-23T13:30:51.663Z,6.15
2018-09-23T13:33:20.908Z,6.35
2018-09-23T13:35:50.248Z,5.95
2018-09-23T13:38:19.623Z,7.08
2018-09-23T13:40:48.757Z,7.50
2018-09-23T13:43:17.748Z,9.30
2018-09-23T13:45:47.050Z,7.13
2018-09-23T13:48:16.152Z,6.77
2018-09-23T13:50:45.392Z,7.13
2018-09-23T13:53:14.632Z,6.50
2018-09-23T13:55:43.420Z,7.07
2018-09-23T13:58:12.415Z,6.40
2018-09-23T14:00:41.444Z,6.70
2018-09-23T14:03:10.647Z,6.83
2018-09-23T14:05:39.958Z,7.43
2018-09-23T14:08:09.191Z,6.37
2018-09-23T14:10:38.103Z,6.90
2018-09-23T14:13:07.480Z,7.40
2018-09-23T14:15:36.942Z,7.23
2018-09-23T14:18:06.172Z,7.07
2018-09-23T14:20:35.437Z,7.03
2018-09-23T14:23:04.667Z,6.90
2018-09-23T14:25:33.967Z,7.43
2018-09-23T14:28:03.319Z,7.23
2018-09-23T14:30:32.453Z,6.73
2018-09-23T14:33:01.723Z,7.00
2018-09-23T14:35:30.964Z,6.60
2018-09-23T14:37:59.970Z,6.90
2018-09-23T14:40:29.155Z,6.60
2018-09-23T14:42:58.560Z,6.30
2018-09-23T14:45:27.955Z,7.07
2018-09-23T14:47:57.351Z,6.90
2018-09-23T14:50:26.471Z,7.10
2018-09-23T14:52:55.607Z,6.57
2018-09-23T14:55:24.603Z,6.90
2018-09-23T14:57:54.094Z,6.30
2018-09-23T15:00:23.276Z,6.60
2018-09-23T15:02:52.649Z,6.80
2018-09-23T15:05:21.944Z,6.87
2018-09-23T15:07:51.101Z,7.30
2018-09-23T15:10:20.396Z,10.30
2018-09-23T15:12:49.744Z,8.73
2018-09-23T15:15:18.907Z,8.60
2018-09-23T15:17:48.097Z,6.40
2018-09-23T15:20:17.424Z,7.53
2018-09-23T15:22:46.680Z,7.97
2018-09-23T15:25:15.955Z,7.80
2018-09-23T15:27:45.168Z,7.37
2018-09-23T15:30:14.519Z,7.00
2018-09-23T15:32:43.394Z,7.50
2018-09-23T15:35:12.927Z,7.40
2018-09-23T15:37:42.232Z,6.90
2018-09-23T15:40:11.608Z,7.50
2018-09-23T15:42:40.832Z,7.50
2018-09-23T15:45:10.106Z,7.00
2018-09-23T15:47:39.321Z,7.47
2018-09-23T15:50:08.644Z,6.70
2018-09-23T15:52:37.541Z,6.90
2018-09-23T15:55:06.895Z,6.60
2018-09-23T15:57:36.111Z,7.40
2018-09-23T16:00:05.263Z,7.23
2018-09-23T16:02:34.535Z,7.13
2018-09-23T16:05:03.862Z,6.90
2018-09-23T16:07:33.100Z,6.77
2018-09-23T16:10:02.398Z,6.77
2018-09-23T16:12:31.653Z,6.93
2018-09-23T16:15:00.849Z,6.80
2018-09-23T16:17:29.782Z,6.90
2018-09-23T16:19:59.025Z,7.70
2018-09-23T16:22:28.311Z,7.53
2018-09-23T16:24:57.531Z,7.37
2018-09-23T16:27:26.810Z,7.13
2018-09-23T16:29:56.089Z,7.83
2018-09-23T16:32:25.719Z,7.00
2018-09-23T16:34:54.876Z,7.33
2018-09-23T16:37:24.160Z,7.23
2018-09-23T16:39:54.195Z,7.47
2018-09-23T16:42:23.791Z,7.07
2018-09-23T16:44:53.775Z,7.13
2018-09-23T16:47:22.966Z,7.10
2018-09-23T16:49:52.307Z,7.53
2018-09-23T16:52:21.726Z,7.53
2018-09-23T16:54:51.310Z,7.20
2018-09-23T16:57:20.487Z,7.13
2018-09-23T16:59:49.915Z,7.13
2018-09-23T17:02:19.315Z,7.57
2018-09-23T17:04:48.679Z,6.97
2018-09-23T17:07:18.084Z,6.57
2018-09-23T17:09:47.417Z,6.70
2018-09-23T17:12:16.407Z,6.93
2018-09-23T17:14:45.739Z,7.17
2018-09-23T17:17:14.939Z,7.20
2018-09-23T17:19:44.423Z,7.23
2018-09-23T17:22:13.736Z,7.00
2018-09-23T17:24:42.976Z,7.17
2018-09-23T17:27:12.298Z,7.00
2018-09-23T17:29:41.562Z,7.37
2018-09-23T17:32:11.504Z,7.40
2018-09-23T17:34:40.628Z,7.43
2018-09-23T17:37:10.088Z,7.70
2018-09-23T17:39:39.327Z,7.27
2018-09-23T17:42:08.695Z,7.90
2018-09-23T17:44:37.800Z,7.33
2018-09-23T17:47:07.104Z,7.63
2018-09-23T17:49:37.329Z,8.03
2018-09-23T17:52:06.690Z,8.07
2018-09-23T17:54:35.971Z,7.80
2018-09-23T17:57:05.103Z,7.80
2018-09-23T17:59:36.516Z,7.27
2018-09-23T18:02:05.818Z,8.27
2018-09-23T18:04:35.227Z,9.03
2018-09-23T18:07:04.705Z,8.77
2018-09-23T18:09:33.876Z,8.40
2018-09-23T18:12:03.273Z,9.30
2018-09-23T18:14:33.351Z,9.93
2018-09-23T18:17:02.369Z,9.73
2018-09-23T18:19:31.466Z,10.43
2018-09-23T18:22:00.867Z,8.17
2018-09-23T18:24:30.871Z,8.00
2018-09-23T18:27:00.094Z,8.10
2018-09-23T18:29:31.952Z,8.00
2018-09-23T18:32:01.393Z,7.93
2018-09-23T18:34:30.812Z,8.33
2018-09-23T18:37:08.254Z,8.27
2018-09-23T18:39:38.149Z,7.90
2018-09-23T18:42:07.591Z,7.37
2018-09-23T18:44:37.626Z,7.83
2018-09-23T18:47:07.064Z,7.73
2018-09-23T18:49:36.401Z,7.67
2018-09-23T18:52:05.736Z,7.60
2018-09-23T18:55:41.112Z,7.40
2018-09-23T18:58:10.130Z,7.73
2018-09-23T19:00:39.722Z,8.27
2018-09-23T19:03:09.457Z,8.10
2018-09-23T19:05:39.030Z,8.07
2018-09-23T19:08:08.354Z,9.50
2018-09-23T19:10:37.682Z,8.27
2018-09-23T19:13:11.982Z,7.93
2018-09-23T19:15:41.475Z,9.30
2018-09-23T19:18:11.203Z,8.43
2018-09-23T19:20:41.301Z,8.27
2018-09-23T19:23:11.835Z,8.80
2018-09-23T19:25:41.426Z,8.57
2018-09-23T19:28:10.655Z,8.80
2018-09-23T19:30:40.123Z,9.53
2018-09-23T19:33:09.472Z,9.20
2018-09-23T19:35:38.468Z,9.20
2018-09-23T19:38:07.730Z,10.37
2018-09-23T19:40:37.151Z,10.60
2018-09-23T19:43:06.349Z,10.50
2018-09-23T19:45:35.516Z,10.30
2018-09-23T19:48:04.865Z,10.93
2018-09-23T19:50:34.837Z,10.53
2018-09-23T19:53:04.075Z,11.50
2018-09-23T19:55:33.161Z,11.47
2018-09-23T19:58:02.352Z,11.60
2018-09-23T20:00:31.595Z,10.90
2018-09-23T20:03:01.259Z,11.73
2018-09-23T20:05:30.617Z,11.37
2018-09-23T20:07:59.809Z,11.87
2018-09-23T20:10:29.099Z,11.67
2018-09-23T20:12:58.163Z,11.47
2018-09-23T20:15:27.421Z,11.63
2018-09-23T20:17:56.589Z,12.10
2018-09-23T20:20:25.782Z,10.60
2018-09-23T20:22:54.974Z,11.47
2018-09-23T20:25:24.091Z,11.43
2018-09-23T20:27:53.435Z,10.70
2018-09-23T20:30:22.432Z,11.50
2018-09-23T20:32:51.412Z,11.03
2018-09-23T20:35:20.523Z,11.17
2018-09-23T20:37:49.807Z,11.87
2018-09-23T20:40:18.771Z,11.20
2018-09-23T20:42:48.149Z,11.27
2018-09-23T20:45:17.636Z,10.83
2018-09-23T20:47:46.935Z,11.17
2018-09-23T20:50:16.244Z,10.93
2018-09-23T20:52:45.460Z,11.43
2018-09-23T20:55:14.588Z,10.83
2018-09-23T20:57:43.847Z,10.50
2018-09-23T21:00:13.092Z,11.30
2018-09-23T21:02:42.068Z,10.77
2018-09-23T21:05:11.028Z,11.57
2018-09-23T21:07:40.427Z,10.93
2018-09-23T21:10:09.871Z,10.10
2018-09-23T21:12:39.267Z,10.50
2018-09-23T21:15:09.511Z,9.80
2018-09-23T21:17:39.003Z,10.20
2018-09-23T21:20:08.527Z,10.10
2018-09-23T21:22:37.804Z,9.63
2018-09-23T21:25:07.157Z,9.73
2018-09-23T21:27:36.569Z,10.03
2018-09-23T21:30:05.919Z,9.63
2018-09-23T21:32:34.791Z,10.53
2018-09-23T21:35:04.167Z,9.80
2018-09-23T21:37:33.544Z,9.23
2018-09-23T21:40:02.915Z,9.13
2018-09-23T21:42:32.453Z,8.60
2018-09-23T21:45:01.251Z,9.37
2018-09-23T21:47:30.647Z,9.13
2018-09-23T21:49:59.833Z,8.60
2018-09-23T21:52:29.131Z,8.60
2018-09-23T21:54:57.968Z,9.07
2018-09-23T21:57:27.325Z,8.83
2018-09-23T21:59:56.643Z,8.90
2018-09-23T22:02:25.880Z,9.20
2018-09-23T22:04:55.063Z,8.53
2018-09-23T22:07:24.307Z,8.80
2018-09-23T22:09:53.263Z,9.43
2018-09-23T22:12:22.446Z,9.47
2018-09-23T22:14:51.597Z,8.63
2018-09-23T22:17:20.891Z,8.03
2018-09-23T22:19:49.815Z,9.00
2018-09-23T22:22:19.248Z,9.47
2018-09-23T22:24:48.484Z,9.33
2018-09-23T22:27:17.663Z,9.20
2018-09-23T22:29:46.974Z,9.60
2018-09-23T22:32:15.923Z,9.33
2018-09-23T22:34:45.235Z,9.97
2018-09-23T22:37:14.304Z,9.63
2018-09-23T22:39:43.330Z,10.00
2018-09-23T22:42:12.616Z,10.37
2018-09-23T22:44:42.068Z,10.07
2018-09-23T22:47:11.416Z,9.23
2018-09-23T22:49:40.449Z,10.77
2018-09-23T22:52:09.803Z,10.70
2018-09-23T22:54:39.011Z,10.40
2018-09-23T22:57:08.343Z,10.60
2018-09-23T22:59:37.271Z,10.73
2018-09-23T23:02:06.547Z,10.27
2018-09-23T23:04:35.887Z,10.53
2018-09-23T23:07:05.093Z,10.50
2018-09-23T23:09:34.575Z,10.13
2018-09-23T23:12:03.912Z,10.57
2018-09-23T23:14:33.343Z,11.20
2018-09-23T23:17:02.229Z,11.30
2018-09-23T23:19:31.518Z,10.73
2018-09-23T23:22:00.761Z,11.27
2018-09-23T23:24:30.123Z,10.33
2018-09-23T23:26:59.460Z,10.27
2018-09-23T23:29:28.684Z,10.40
2018-09-23T23:31:57.981Z,11.03
2018-09-23T23:34:27.187Z,10.20
2018-09-23T23:36:56.436Z,10.97
2018-09-23T23:39:25.774Z,11.40
2018-09-23T23:41:55.031Z,10.77
2018-09-23T23:44:24.272Z,10.77
2018-09-23T23:46:53.258Z,11.23
2018-09-23T23:49:22.404Z,10.97
2018-09-23T23:51:51.755Z,10.63
2018-09-23T23:54:21.003Z,11.10
2018-09-23T23:56:50.057Z,11.70
2018-09-23T23:59:18.918Z,10.63
